createdAt,value
2018-11-27T00:00:14.571Z,0.00
2018-11-27T00:01:14.589Z,0.00
2018-11-27T00:02:14.638Z,0.00
2018-11-27T00:03:14.662Z,0.00
2018-11-27T00:04:14.481Z,0.00
2018-11-27T00:05:14.592Z,0.00
2018-11-27T00:06:14.599Z,0.00
2018-11-27T00:07:14.497Z,0.00
2018-11-27T00:08:14.402Z,0.00
2018-11-27T00:09:15.611Z,0.00
2018-11-27T00:10:14.522Z,0.00
2018-11-27T00:11:14.429Z,0.00
2018-11-27T00:12:14.338Z,0.00
2018-11-27T00:14:24.853Z,0.00
2018-11-27T00:15:24.626Z,0.00
2018-11-27T00:16:24.623Z,0.00
2018-11-27T00:17:24.617Z,0.00
2018-11-27T00:18:24.675Z,0.00
2018-11-27T00:19:24.656Z,0.00
2018-11-27T00:20:25.228Z,0.00
2018-11-27T00:21:24.617Z,0.00
2018-11-27T00:22:24.437Z,0.00
2018-11-27T00:23:24.613Z,0.00
2018-11-27T00:24:24.621Z,0.00
2018-11-27T00:25:24.468Z,0.00
2018-11-27T00:26:24.622Z,0.00
2018-11-27T00:27:24.602Z,0.00
2018-11-27T00:29:36.649Z,0.00
2018-11-27T00:30:36.272Z,0.00
2018-11-27T00:31:36.181Z,0.00
2018-11-27T00:32:36.096Z,0.00
2018-11-27T00:33:35.994Z,0.00
2018-11-27T00:34:36.198Z,0.00
2018-11-27T00:35:36.422Z,0.00
2018-11-27T00:36:36.008Z,0.00
2018-11-27T00:37:36.220Z,0.00
2018-11-27T00:38:36.147Z,0.00
2018-11-27T00:39:36.041Z,0.00
2018-11-27T00:40:36.558Z,0.00
2018-11-27T00:41:36.156Z,0.00
2018-11-27T00:42:36.069Z,0.00
2018-11-27T00:44:58.730Z,0.00
2018-11-27T00:45:58.672Z,0.00
2018-11-27T00:46:58.498Z,0.00
2018-11-27T00:47:58.616Z,0.00
2018-11-27T00:48:58.519Z,0.00
2018-11-27T00:49:58.425Z,0.00
2018-11-27T00:50:58.722Z,0.00
2018-11-27T00:51:58.547Z,0.00
2018-11-27T00:52:58.448Z,0.00
2018-11-27T00:53:58.366Z,0.00
2018-11-27T00:54:59.658Z,0.00
2018-11-27T00:55:58.487Z,0.00
2018-11-27T00:56:58.693Z,0.00
2018-11-27T00:57:58.301Z,0.00
2018-11-27T01:00:11.612Z,0.00
2018-11-27T01:01:09.659Z,0.00
2018-11-27T01:02:09.879Z,0.00
2018-11-27T01:03:09.737Z,0.00
2018-11-27T01:04:09.651Z,0.00
2018-11-27T01:05:09.619Z,0.00
2018-11-27T01:06:09.655Z,0.00
2018-11-27T01:07:09.450Z,0.00
2018-11-27T01:08:09.680Z,0.00
2018-11-27T01:09:09.520Z,0.00
2018-11-27T01:10:09.428Z,0.00
2018-11-27T01:11:09.671Z,0.00
2018-11-27T01:12:09.547Z,0.00
2018-11-27T01:13:09.454Z,0.00
2018-11-27T01:15:32.667Z,0.00
2018-11-27T01:16:31.624Z,0.00
2018-11-27T01:17:31.668Z,0.00
2018-11-27T01:18:31.673Z,0.00
2018-11-27T01:19:31.625Z,0.00
2018-11-27T01:20:31.521Z,0.00
2018-11-27T01:21:32.044Z,0.00
2018-11-27T01:22:31.669Z,0.00
2018-11-27T01:23:31.756Z,0.00
2018-11-27T01:24:31.683Z,0.00
2018-11-27T01:25:31.666Z,0.00
2018-11-27T01:26:31.680Z,0.00
2018-11-27T01:27:31.477Z,0.00
2018-11-27T01:28:31.994Z,0.00
2018-11-27T01:30:41.827Z,0.00
2018-11-27T01:31:41.730Z,0.00
2018-11-27T01:32:41.732Z,0.00
2018-11-27T01:33:41.727Z,0.00
2018-11-27T01:34:41.731Z,0.00
2018-11-27T01:35:41.732Z,0.00
2018-11-27T01:36:41.786Z,0.00
2018-11-27T01:37:41.744Z,0.00
2018-11-27T01:38:41.749Z,0.00
2018-11-27T01:39:41.741Z,0.00
2018-11-27T01:40:41.605Z,0.00
2018-11-27T01:41:41.529Z,0.00
2018-11-27T01:42:42.369Z,0.00
2018-11-27T01:43:41.653Z,0.00
2018-11-27T01:46:03.566Z,0.00
2018-11-27T01:47:03.162Z,0.00
2018-11-27T01:48:03.060Z,0.00
2018-11-27T01:49:02.876Z,0.00
2018-11-27T01:50:02.856Z,0.00
2018-11-27T01:51:03.127Z,0.00
2018-11-27T01:52:02.948Z,0.00
2018-11-27T01:53:02.815Z,0.00
2018-11-27T01:54:03.104Z,0.00
2018-11-27T01:55:03.003Z,0.00
2018-11-27T01:56:02.801Z,0.00
2018-11-27T01:57:02.776Z,0.00
2018-11-27T01:58:03.645Z,0.00
2018-11-27T01:59:02.754Z,0.00
2018-11-27T02:01:13.508Z,0.00
2018-11-27T02:02:13.089Z,0.00
2018-11-27T02:03:12.816Z,0.00
2018-11-27T02:04:12.840Z,0.00
2018-11-27T02:05:12.806Z,0.00
2018-11-27T02:06:12.808Z,0.00
2018-11-27T02:07:12.876Z,0.00
2018-11-27T02:08:12.784Z,0.00
2018-11-27T02:09:13.036Z,0.00
2018-11-27T02:10:12.752Z,0.00
2018-11-27T02:11:12.727Z,0.00
2018-11-27T02:12:12.752Z,0.00
2018-11-27T02:13:12.870Z,0.00
2018-11-27T02:14:12.738Z,0.00
2018-11-27T02:16:24.775Z,0.00
2018-11-27T02:17:24.561Z,0.00
2018-11-27T02:18:24.728Z,0.00
2018-11-27T02:19:24.728Z,0.00
2018-11-27T02:20:24.796Z,0.00
2018-11-27T02:21:24.495Z,0.00
2018-11-27T02:22:24.717Z,0.00
2018-11-27T02:23:24.619Z,0.00
2018-11-27T02:24:24.520Z,0.00
2018-11-27T02:25:24.737Z,0.00
2018-11-27T02:26:24.847Z,0.00
2018-11-27T02:27:24.542Z,0.00
2018-11-27T02:28:24.457Z,0.00
2018-11-27T02:29:24.666Z,0.00
2018-11-27T02:31:58.779Z,0.00
2018-11-27T02:32:58.754Z,0.00
2018-11-27T02:33:58.687Z,0.00
2018-11-27T02:34:58.773Z,0.00
2018-11-27T02:35:58.751Z,0.00
2018-11-27T02:36:58.708Z,0.00
2018-11-27T02:37:58.796Z,0.00
2018-11-27T02:38:59.135Z,0.00
2018-11-27T02:39:58.980Z,0.00
2018-11-27T02:40:58.646Z,0.00
2018-11-27T02:41:58.754Z,0.00
2018-11-27T02:42:58.754Z,0.00
2018-11-27T02:43:58.781Z,0.00
2018-11-27T02:44:58.585Z,0.00
2018-11-27T02:47:09.810Z,0.00
2018-11-27T02:48:09.764Z,0.00
2018-11-27T02:49:10.777Z,0.00
2018-11-27T02:50:09.869Z,0.00
2018-11-27T02:51:09.661Z,0.00
2018-11-27T02:52:09.857Z,0.00
2018-11-27T02:53:09.781Z,0.00
2018-11-27T02:54:09.771Z,0.00
2018-11-27T02:55:10.208Z,0.00
2018-11-27T02:56:09.814Z,0.00
2018-11-27T02:57:09.757Z,0.00
2018-11-27T02:58:09.624Z,0.00
2018-11-27T02:59:09.532Z,0.00
2018-11-27T03:01:31.137Z,0.00
2018-11-27T03:02:30.736Z,0.00
2018-11-27T03:03:30.806Z,0.00
2018-11-27T03:04:30.806Z,0.00
2018-11-27T03:05:30.753Z,0.00
2018-11-27T03:06:30.782Z,0.00
2018-11-27T03:07:30.837Z,0.00
2018-11-27T03:08:30.775Z,0.00
2018-11-27T03:09:30.679Z,0.00
2018-11-27T03:10:30.791Z,0.00
2018-11-27T03:11:30.795Z,0.00
2018-11-27T03:12:30.704Z,0.00
2018-11-27T03:13:30.765Z,0.00
2018-11-27T03:14:30.817Z,0.00
2018-11-27T03:16:42.312Z,0.00
2018-11-27T03:17:40.674Z,0.00
2018-11-27T03:18:40.798Z,0.00
2018-11-27T03:19:40.790Z,0.00
2018-11-27T03:20:40.693Z,0.00
2018-11-27T03:21:40.842Z,0.00
2018-11-27T03:22:41.119Z,0.00
2018-11-27T03:23:40.716Z,0.00
2018-11-27T03:24:40.621Z,0.00
2018-11-27T03:25:40.795Z,0.00
2018-11-27T03:26:40.742Z,0.00
2018-11-27T03:27:40.741Z,0.00
2018-11-27T03:28:40.857Z,0.00
2018-11-27T03:29:40.889Z,0.00
2018-11-27T03:31:51.636Z,0.00
2018-11-27T03:32:51.810Z,0.00
2018-11-27T03:33:51.461Z,0.00
2018-11-27T03:34:51.025Z,0.00
2018-11-27T03:35:50.948Z,0.00
2018-11-27T03:36:51.251Z,0.00
2018-11-27T03:37:51.676Z,0.00
2018-11-27T03:38:51.288Z,0.00
2018-11-27T03:39:51.526Z,0.00
2018-11-27T03:40:50.897Z,0.00
2018-11-27T03:41:50.905Z,0.00
2018-11-27T03:42:50.873Z,0.00
2018-11-27T03:43:51.427Z,0.00
2018-11-27T03:44:51.005Z,0.00
2018-11-27T03:47:01.594Z,0.00
2018-11-27T03:48:01.228Z,0.00
2018-11-27T03:49:00.920Z,0.00
2018-11-27T03:50:00.899Z,0.00
2018-11-27T03:51:01.533Z,0.00
2018-11-27T03:52:00.907Z,0.00
2018-11-27T03:53:01.041Z,0.00
2018-11-27T03:54:01.225Z,0.00
2018-11-27T03:55:01.133Z,0.00
2018-11-27T03:56:00.843Z,0.00
2018-11-27T03:57:02.174Z,0.00
2018-11-27T03:58:00.845Z,0.00
2018-11-27T03:59:00.842Z,0.00
2018-11-27T04:00:00.834Z,0.00
2018-11-27T04:02:13.855Z,0.00
2018-11-27T04:03:12.670Z,0.00
2018-11-27T04:04:13.169Z,0.00
2018-11-27T04:05:12.834Z,0.00
2018-11-27T04:06:12.678Z,0.00
2018-11-27T04:07:12.581Z,0.00
2018-11-27T04:08:12.791Z,0.00
2018-11-27T04:09:12.696Z,0.00
2018-11-27T04:10:12.895Z,0.00
2018-11-27T04:11:12.824Z,0.00
2018-11-27T04:12:12.769Z,0.00
2018-11-27T04:13:12.631Z,0.00
2018-11-27T04:14:12.541Z,0.00
2018-11-27T04:15:12.880Z,0.00
2018-11-27T04:17:24.844Z,0.00
2018-11-27T04:18:23.517Z,0.00
2018-11-27T04:19:23.473Z,0.00
2018-11-27T04:20:23.326Z,0.00
2018-11-27T04:21:23.858Z,0.00
2018-11-27T04:22:23.451Z,0.00
2018-11-27T04:23:23.350Z,0.00
2018-11-27T04:24:23.860Z,0.00
2018-11-27T04:25:23.821Z,0.00
2018-11-27T04:26:23.873Z,0.00
2018-11-27T04:27:23.910Z,0.00
2018-11-27T04:28:23.182Z,0.00
2018-11-27T04:29:23.399Z,0.00
2018-11-27T04:30:23.874Z,0.00
2018-11-27T04:31:23.208Z,0.00
2018-11-27T04:33:34.973Z,0.00
2018-11-27T04:34:34.894Z,0.00
2018-11-27T04:35:34.799Z,0.00
2018-11-27T04:36:34.709Z,0.00
2018-11-27T04:37:34.884Z,0.00
2018-11-27T04:38:34.836Z,0.00
2018-11-27T04:39:34.869Z,0.00
2018-11-27T04:40:34.874Z,0.00
2018-11-27T04:41:34.846Z,0.00
2018-11-27T04:42:34.753Z,0.00
2018-11-27T04:43:34.673Z,0.00
2018-11-27T04:44:34.877Z,0.00
2018-11-27T04:45:34.885Z,0.00
2018-11-27T04:46:34.687Z,0.00
2018-11-27T04:48:56.890Z,0.00
2018-11-27T04:49:56.198Z,0.00
2018-11-27T04:50:56.718Z,0.00
2018-11-27T04:51:55.924Z,0.00
2018-11-27T04:52:56.228Z,0.00
2018-11-27T04:53:55.926Z,0.00
2018-11-27T04:54:56.645Z,0.00
2018-11-27T04:55:55.887Z,0.00
2018-11-27T04:56:56.463Z,0.00
2018-11-27T04:57:55.963Z,0.00
2018-11-27T04:58:55.894Z,0.00
2018-11-27T04:59:55.878Z,0.00
2018-11-27T05:00:55.986Z,0.00
2018-11-27T05:01:55.905Z,0.00
2018-11-27T05:04:06.904Z,0.00
2018-11-27T05:05:05.835Z,0.00
2018-11-27T05:06:05.909Z,0.00
2018-11-27T05:07:05.902Z,0.00
2018-11-27T05:08:05.866Z,0.00
2018-11-27T05:09:05.946Z,0.00
2018-11-27T05:10:06.599Z,0.00
2018-11-27T05:11:05.975Z,0.00
2018-11-27T05:12:05.796Z,0.00
2018-11-27T05:13:05.772Z,0.00
2018-11-27T05:14:05.915Z,0.00
2018-11-27T05:15:05.822Z,0.00
2018-11-27T05:16:05.770Z,0.00
2018-11-27T05:17:06.855Z,0.00
2018-11-27T05:19:17.822Z,0.00
2018-11-27T05:20:17.346Z,0.00
2018-11-27T05:21:17.069Z,0.00
2018-11-27T05:22:17.051Z,0.00
2018-11-27T05:23:17.029Z,0.00
2018-11-27T05:24:17.248Z,0.00
2018-11-27T05:25:17.838Z,0.00
2018-11-27T05:26:17.019Z,0.00
2018-11-27T05:27:17.275Z,0.00
2018-11-27T05:28:17.122Z,0.00
2018-11-27T05:29:16.966Z,0.00
2018-11-27T05:30:16.948Z,0.00
2018-11-27T05:31:17.203Z,0.00
2018-11-27T05:32:17.037Z,0.00
2018-11-27T05:34:27.674Z,0.00
2018-11-27T05:35:26.922Z,0.00
2018-11-27T05:36:26.867Z,0.00
2018-11-27T05:37:26.933Z,0.00
2018-11-27T05:38:27.279Z,0.00
2018-11-27T05:39:26.888Z,0.00
2018-11-27T05:40:26.776Z,0.00
2018-11-27T05:41:26.942Z,0.00
2018-11-27T05:42:26.907Z,0.00
2018-11-27T05:43:26.837Z,0.00
2018-11-27T05:44:27.945Z,0.00
2018-11-27T05:45:26.955Z,0.00
2018-11-27T05:46:26.831Z,0.00
2018-11-27T05:47:26.963Z,0.00
2018-11-27T05:49:49.594Z,0.00
2018-11-27T05:50:48.886Z,0.00
2018-11-27T05:51:48.944Z,0.00
2018-11-27T05:52:48.950Z,0.00
2018-11-27T05:53:48.892Z,0.00
2018-11-27T05:54:48.946Z,0.00
2018-11-27T05:55:48.983Z,0.00
2018-11-27T05:56:48.920Z,0.00
2018-11-27T05:57:48.820Z,0.00
2018-11-27T05:58:48.960Z,0.00
2018-11-27T05:59:48.962Z,0.00
2018-11-27T06:00:48.867Z,0.00
2018-11-27T06:01:48.999Z,0.00
2018-11-27T06:02:48.976Z,0.00
2018-11-27T06:05:00.025Z,0.00
2018-11-27T06:05:59.760Z,0.00
2018-11-27T06:06:59.643Z,0.00
2018-11-27T06:07:59.864Z,0.00
2018-11-27T06:08:59.447Z,4.00
2018-11-27T06:10:00.584Z,4.00
2018-11-27T06:11:00.692Z,4.00
2018-11-27T06:11:59.468Z,4.00
2018-11-27T06:13:00.003Z,4.00
2018-11-27T06:13:59.590Z,4.00
2018-11-27T06:14:59.518Z,4.00
2018-11-27T06:16:00.704Z,4.00
2018-11-27T06:16:59.976Z,8.00
2018-11-27T06:17:59.529Z,4.00
2018-11-27T06:20:32.974Z,12.00
2018-11-27T06:21:32.414Z,12.00
2018-11-27T06:22:32.327Z,12.00
2018-11-27T06:23:32.126Z,16.00
2018-11-27T06:24:32.450Z,20.00
2018-11-27T06:25:32.356Z,20.00
2018-11-27T06:26:33.015Z,24.00
2018-11-27T06:27:32.077Z,28.00
2018-11-27T06:28:32.361Z,32.00
2018-11-27T06:29:32.066Z,36.00
2018-11-27T06:30:32.079Z,40.00
2018-11-27T06:31:32.087Z,48.00
2018-11-27T06:32:32.195Z,52.00
2018-11-27T06:33:32.049Z,56.00
2018-11-27T06:35:55.977Z,76.00
2018-11-27T06:36:55.066Z,84.00
2018-11-27T06:37:55.018Z,92.00
2018-11-27T06:38:55.135Z,100.00
2018-11-27T06:39:54.994Z,112.00
2018-11-27T06:40:55.002Z,120.00
2018-11-27T06:41:55.495Z,132.00
2018-11-27T06:42:55.011Z,148.00
2018-11-27T06:43:55.008Z,156.00
2018-11-27T06:44:55.026Z,168.00
2018-11-27T06:45:55.010Z,184.00
2018-11-27T06:46:54.920Z,192.00
2018-11-27T06:47:55.039Z,204.00
2018-11-27T06:48:54.736Z,216.00
2018-11-27T06:51:06.027Z,256.00
2018-11-27T06:52:05.501Z,272.00
2018-11-27T06:53:05.023Z,292.00
2018-11-27T06:54:05.036Z,316.00
2018-11-27T06:55:06.032Z,344.00
2018-11-27T06:56:05.086Z,368.00
2018-11-27T06:57:05.023Z,396.00
2018-11-27T06:58:04.929Z,424.00
2018-11-27T06:59:05.031Z,448.00
2018-11-27T07:00:05.700Z,476.00
2018-11-27T07:01:06.114Z,512.00
2018-11-27T07:02:04.860Z,552.00
2018-11-27T07:03:05.033Z,592.00
2018-11-27T07:04:05.032Z,628.00
2018-11-27T07:06:26.112Z,712.00
2018-11-27T07:07:26.060Z,756.00
2018-11-27T07:08:26.024Z,804.00
2018-11-27T07:09:26.034Z,852.00
2018-11-27T07:10:26.030Z,912.00
2018-11-27T07:11:26.031Z,968.00
2018-11-27T07:12:26.049Z,1028.00
2018-11-27T07:13:26.065Z,1080.00
2018-11-27T07:14:26.399Z,1136.00
2018-11-27T07:15:26.035Z,1200.00
2018-11-27T07:16:25.955Z,1256.00
2018-11-27T07:17:25.863Z,1308.00
2018-11-27T07:18:26.696Z,1364.00
2018-11-27T07:19:25.976Z,1432.00
2018-11-27T07:21:37.076Z,1596.00
2018-11-27T07:22:37.052Z,1676.00
2018-11-27T07:23:36.961Z,1764.00
2018-11-27T07:24:37.061Z,1832.00
2018-11-27T07:25:37.076Z,1900.00
2018-11-27T07:26:36.985Z,1976.00
2018-11-27T07:27:37.076Z,2056.00
2018-11-27T07:28:36.792Z,2140.00
2018-11-27T07:29:37.007Z,2232.00
2018-11-27T07:30:37.050Z,2324.00
2018-11-27T07:31:36.815Z,2428.00
2018-11-27T07:32:36.718Z,2536.00
2018-11-27T07:33:37.093Z,2628.00
2018-11-27T07:34:36.868Z,2700.00
2018-11-27T07:36:51.132Z,2856.00
2018-11-27T07:37:50.109Z,2956.00
2018-11-27T07:38:50.065Z,3092.00
2018-11-27T07:39:49.879Z,3204.00
2018-11-27T07:40:50.079Z,3268.00
2018-11-27T07:41:49.988Z,3324.00
2018-11-27T07:42:50.072Z,3404.00
2018-11-27T07:43:49.807Z,3516.00
2018-11-27T07:44:50.021Z,3652.00
2018-11-27T07:45:55.046Z,3800.00
2018-11-27T07:46:50.788Z,3924.00
2018-11-27T07:47:50.043Z,3992.00
2018-11-27T07:48:50.118Z,4020.00
2018-11-27T07:49:49.851Z,4060.00
2018-11-27T07:52:02.124Z,4192.00
2018-11-27T07:53:01.867Z,4284.00
2018-11-27T07:54:02.379Z,4392.00
2018-11-27T07:55:02.078Z,4496.00
2018-11-27T07:56:02.075Z,4576.00
2018-11-27T07:57:02.083Z,4664.00
2018-11-27T07:58:02.070Z,4732.00
2018-11-27T07:59:01.915Z,4792.00
2018-11-27T08:00:02.421Z,4848.00
2018-11-27T08:01:02.042Z,4912.00
2018-11-27T08:02:01.927Z,4992.00
2018-11-27T08:03:01.842Z,5096.00
2018-11-27T08:04:02.102Z,5244.00
2018-11-27T08:05:01.958Z,5360.00
2018-11-27T08:07:14.966Z,5548.00
2018-11-27T08:08:14.572Z,5636.00
2018-11-27T08:09:14.788Z,5724.00
2018-11-27T08:10:14.276Z,5808.00
2018-11-27T08:11:14.268Z,5852.00
2018-11-27T08:12:14.496Z,5904.00
2018-11-27T08:13:15.591Z,5968.00
2018-11-27T08:14:14.273Z,6044.00
2018-11-27T08:15:14.526Z,6108.00
2018-11-27T08:16:14.719Z,6188.00
2018-11-27T08:17:14.209Z,6276.00
2018-11-27T08:18:14.193Z,6344.00
2018-11-27T08:19:14.765Z,6412.00
2018-11-27T08:20:14.176Z,6476.00
2018-11-27T08:22:36.190Z,6652.00
2018-11-27T08:23:38.158Z,6704.00
2018-11-27T08:24:36.391Z,6764.00
2018-11-27T08:25:35.991Z,6800.00
2018-11-27T08:26:35.901Z,6828.00
2018-11-27T08:27:36.095Z,6836.00
2018-11-27T08:28:35.748Z,6808.00
2018-11-27T08:29:36.121Z,6840.00
2018-11-27T08:30:35.821Z,6820.00
2018-11-27T08:31:35.746Z,6828.00
2018-11-27T08:32:35.631Z,6868.00
2018-11-27T08:33:35.849Z,6836.00
2018-11-27T08:34:35.751Z,6756.00
2018-11-27T08:35:36.269Z,6732.00
2018-11-27T08:38:09.949Z,6808.00
2018-11-27T08:39:09.460Z,6808.00
2018-11-27T08:40:10.025Z,6788.00
2018-11-27T08:41:09.577Z,6760.00
2018-11-27T08:42:09.789Z,6676.00
2018-11-27T08:43:09.378Z,6516.00
2018-11-27T08:44:09.910Z,6360.00
2018-11-27T08:45:09.506Z,6268.00
2018-11-27T08:46:09.314Z,6252.00
2018-11-27T08:47:09.626Z,6176.00
2018-11-27T08:48:09.524Z,6048.00
2018-11-27T08:49:09.431Z,5932.00
2018-11-27T08:50:09.951Z,5868.00
2018-11-27T08:51:09.627Z,5832.00
2018-11-27T08:53:31.162Z,5836.00
2018-11-27T08:54:31.072Z,5792.00
2018-11-27T08:55:31.896Z,5716.00
2018-11-27T08:56:30.883Z,5684.00
2018-11-27T08:57:31.094Z,5664.00
2018-11-27T08:58:31.000Z,5668.00
2018-11-27T08:59:30.916Z,5732.00
2018-11-27T09:00:31.142Z,5836.00
2018-11-27T09:01:31.153Z,5936.00
2018-11-27T09:02:30.942Z,6000.00
2018-11-27T09:03:31.171Z,6020.00
2018-11-27T09:04:31.051Z,6040.00
2018-11-27T09:05:31.174Z,5952.00
2018-11-27T09:06:30.878Z,5804.00
2018-11-27T09:08:44.039Z,5668.00
2018-11-27T09:09:43.151Z,5708.00
2018-11-27T09:10:42.764Z,5784.00
2018-11-27T09:11:43.149Z,5764.00
2018-11-27T09:12:42.595Z,5732.00
2018-11-27T09:13:43.184Z,5756.00
2018-11-27T09:14:43.279Z,5792.00
2018-11-27T09:15:42.905Z,5824.00
2018-11-27T09:16:42.833Z,5908.00
2018-11-27T09:17:42.731Z,6064.00
2018-11-27T09:18:42.946Z,6168.00
2018-11-27T09:19:42.537Z,6172.00
2018-11-27T09:20:43.057Z,6092.00
2018-11-27T09:21:42.654Z,5988.00
2018-11-27T09:24:06.118Z,5692.00
2018-11-27T09:25:05.348Z,5752.00
2018-11-27T09:26:05.619Z,5788.00
2018-11-27T09:27:05.524Z,5736.00
2018-11-27T09:28:05.326Z,5724.00
2018-11-27T09:29:05.636Z,5788.00
2018-11-27T09:30:06.469Z,5832.00
2018-11-27T09:31:05.406Z,5816.00
2018-11-27T09:32:05.704Z,5776.00
2018-11-27T09:33:05.231Z,5760.00
2018-11-27T09:34:05.228Z,5848.00
2018-11-27T09:35:05.205Z,5920.00
2018-11-27T09:36:06.566Z,5880.00
2018-11-27T09:37:05.201Z,5872.00
2018-11-27T09:39:17.899Z,5896.00
2018-11-27T09:40:17.795Z,5880.00
2018-11-27T09:41:18.294Z,5856.00
2018-11-27T09:42:17.610Z,5860.00
2018-11-27T09:43:17.514Z,5936.00
2018-11-27T09:44:17.412Z,6068.00
2018-11-27T09:45:17.628Z,6184.00
2018-11-27T09:46:18.782Z,6196.00
2018-11-27T09:47:18.265Z,6144.00
2018-11-27T09:48:18.195Z,6092.00
2018-11-27T09:49:17.862Z,6084.00
2018-11-27T09:50:17.445Z,6124.00
2018-11-27T09:51:17.346Z,6152.00
2018-11-27T09:52:18.501Z,6060.00
2018-11-27T09:54:30.900Z,5812.00
2018-11-27T09:55:30.850Z,5776.00
2018-11-27T09:56:31.025Z,5876.00
2018-11-27T09:57:30.927Z,5928.00
2018-11-27T09:58:30.586Z,5924.00
2018-11-27T09:59:30.730Z,5880.00
2018-11-27T10:00:30.635Z,5800.00
2018-11-27T10:01:30.705Z,5752.00
2018-11-27T10:02:31.324Z,5716.00
2018-11-27T10:03:30.966Z,5660.00
2018-11-27T10:04:30.573Z,5612.00
2018-11-27T10:05:30.380Z,5548.00
2018-11-27T10:06:30.366Z,5516.00
2018-11-27T10:07:30.911Z,5520.00
2018-11-27T10:10:14.302Z,5456.00
2018-11-27T10:11:14.246Z,5456.00
2018-11-27T10:12:14.139Z,5524.00
2018-11-27T10:13:14.290Z,5600.00
2018-11-27T10:14:14.209Z,5608.00
2018-11-27T10:15:14.216Z,5584.00
2018-11-27T10:16:14.692Z,5580.00
2018-11-27T10:17:14.222Z,5596.00
2018-11-27T10:18:14.229Z,5636.00
2018-11-27T10:19:14.098Z,5640.00
2018-11-27T10:20:14.002Z,5588.00
2018-11-27T10:21:15.230Z,5560.00
2018-11-27T10:22:14.342Z,5600.00
2018-11-27T10:24:26.060Z,5796.00
2018-11-27T10:25:25.350Z,5784.00
2018-11-27T10:26:26.021Z,5720.00
2018-11-27T10:27:25.626Z,5676.00
2018-11-27T10:28:25.405Z,5732.00
2018-11-27T10:29:25.322Z,5888.00
2018-11-27T10:30:26.259Z,6076.00
2018-11-27T10:31:25.575Z,6216.00
2018-11-27T10:32:25.460Z,6280.00
2018-11-27T10:33:25.331Z,6232.00
2018-11-27T10:34:25.568Z,6240.00
2018-11-27T10:35:25.296Z,6348.00
2018-11-27T10:36:26.246Z,6452.00
2018-11-27T10:37:25.287Z,6500.00
2018-11-27T10:39:38.243Z,6596.00
2018-11-27T10:40:36.675Z,6676.00
2018-11-27T10:41:36.584Z,6740.00
2018-11-27T10:42:36.857Z,6776.00
2018-11-27T10:43:36.708Z,6768.00
2018-11-27T10:44:36.607Z,6752.00
2018-11-27T10:45:37.131Z,6748.00
2018-11-27T10:46:36.725Z,6716.00
2018-11-27T10:47:36.650Z,6680.00
2018-11-27T10:48:36.533Z,6660.00
2018-11-27T10:49:36.751Z,6664.00
2018-11-27T10:50:36.972Z,6648.00
2018-11-27T10:51:37.362Z,6708.00
2018-11-27T10:52:36.403Z,6824.00
2018-11-27T10:55:01.153Z,6960.00
2018-11-27T10:55:59.372Z,6956.00
2018-11-27T10:56:59.375Z,6888.00
2018-11-27T10:57:59.677Z,6832.00
2018-11-27T10:58:59.346Z,6748.00
2018-11-27T10:59:59.327Z,6692.00
2018-11-27T11:00:59.968Z,6728.00
2018-11-27T11:01:59.397Z,6824.00
2018-11-27T11:02:59.306Z,6868.00
2018-11-27T11:03:59.285Z,6804.00
2018-11-27T11:04:59.278Z,6688.00
2018-11-27T11:05:59.263Z,6580.00
2018-11-27T11:07:00.329Z,6480.00
2018-11-27T11:07:59.252Z,6408.00
2018-11-27T11:10:11.341Z,6288.00
2018-11-27T11:11:10.692Z,6148.00
2018-11-27T11:12:10.605Z,5992.00
2018-11-27T11:13:10.797Z,5892.00
2018-11-27T11:14:10.718Z,5844.00
2018-11-27T11:15:10.619Z,5768.00
2018-11-27T11:16:11.174Z,5692.00
2018-11-27T11:17:10.745Z,5568.00
2018-11-27T11:18:10.648Z,5408.00
2018-11-27T11:19:10.467Z,5296.00
2018-11-27T11:20:10.762Z,5244.00
2018-11-27T11:21:10.664Z,5232.00
2018-11-27T11:22:12.279Z,5224.00
2018-11-27T11:23:10.534Z,5236.00
2018-11-27T11:25:34.368Z,5372.00
2018-11-27T11:26:34.142Z,5396.00
2018-11-27T11:27:34.296Z,5408.00
2018-11-27T11:28:34.288Z,5380.00
2018-11-27T11:29:34.291Z,5324.00
2018-11-27T11:30:34.074Z,5284.00
2018-11-27T11:31:33.974Z,5256.00
2018-11-27T11:32:34.294Z,5244.00
2018-11-27T11:33:34.092Z,5244.00
2018-11-27T11:34:34.004Z,5284.00
2018-11-27T11:35:34.292Z,5328.00
2018-11-27T11:36:34.126Z,5324.00
2018-11-27T11:37:34.026Z,5268.00
2018-11-27T11:38:33.934Z,5196.00
2018-11-27T11:40:46.024Z,5116.00
2018-11-27T11:41:45.308Z,5132.00
2018-11-27T11:42:45.288Z,5100.00
2018-11-27T11:43:45.297Z,4984.00
2018-11-27T11:44:45.299Z,4828.00
2018-11-27T11:45:46.072Z,4684.00
2018-11-27T11:46:45.188Z,4576.00
2018-11-27T11:47:45.313Z,4496.00
2018-11-27T11:48:45.305Z,4440.00
2018-11-27T11:49:45.223Z,4396.00
2018-11-27T11:50:46.317Z,4364.00
2018-11-27T11:51:46.212Z,4296.00
2018-11-27T11:52:45.453Z,4200.00
2018-11-27T11:53:45.096Z,4112.00
2018-11-27T11:55:57.196Z,4040.00
2018-11-27T11:56:57.402Z,4048.00
2018-11-27T11:57:56.702Z,4052.00
2018-11-27T11:58:56.590Z,4040.00
2018-11-27T11:59:56.821Z,4008.00
2018-11-27T12:00:56.734Z,3960.00
2018-11-27T12:01:56.539Z,3916.00
2018-11-27T12:02:57.409Z,3880.00
2018-11-27T12:03:57.056Z,3852.00
2018-11-27T12:04:56.966Z,3840.00
2018-11-27T12:05:56.502Z,3844.00
2018-11-27T12:06:56.767Z,3844.00
2018-11-27T12:07:56.675Z,3840.00
2018-11-27T12:08:57.229Z,3832.00
2018-11-27T12:09:56.460Z,3816.00
2018-11-27T12:12:20.335Z,3824.00
2018-11-27T12:13:19.980Z,3840.00
2018-11-27T12:14:20.442Z,3828.00
2018-11-27T12:15:19.656Z,3796.00
2018-11-27T12:16:19.369Z,3756.00
2018-11-27T12:17:19.349Z,3680.00
2018-11-27T12:18:19.334Z,3612.00
2018-11-27T12:19:19.338Z,3552.00
2018-11-27T12:20:19.488Z,3520.00
2018-11-27T12:21:19.337Z,3508.00
2018-11-27T12:22:19.307Z,3512.00
2018-11-27T12:23:19.336Z,3532.00
2018-11-27T12:24:19.344Z,3544.00
2018-11-27T12:26:32.351Z,3440.00
2018-11-27T12:27:31.775Z,3368.00
2018-11-27T12:28:31.455Z,3300.00
2018-11-27T12:29:31.456Z,3200.00
2018-11-27T12:30:32.104Z,3132.00
2018-11-27T12:31:31.649Z,3100.00
2018-11-27T12:32:32.173Z,3080.00
2018-11-27T12:33:31.406Z,3040.00
2018-11-27T12:34:31.704Z,2980.00
2018-11-27T12:35:31.392Z,2928.00
2018-11-27T12:36:31.398Z,2888.00
2018-11-27T12:37:31.371Z,2872.00
2018-11-27T12:38:32.537Z,2880.00
2018-11-27T12:39:31.372Z,2896.00
2018-11-27T12:41:45.363Z,2972.00
2018-11-27T12:42:45.352Z,2972.00
2018-11-27T12:43:45.379Z,2980.00
2018-11-27T12:44:44.868Z,2988.00
2018-11-27T12:45:44.781Z,2988.00
2018-11-27T12:46:44.607Z,2972.00
2018-11-27T12:47:45.192Z,2964.00
2018-11-27T12:48:45.092Z,2944.00
2018-11-27T12:49:45.374Z,2940.00
2018-11-27T12:50:44.567Z,2940.00
2018-11-27T12:51:45.373Z,2924.00
2018-11-27T12:52:45.112Z,2892.00
2018-11-27T12:53:45.401Z,2840.00
2018-11-27T12:54:44.835Z,2772.00
2018-11-27T12:56:56.922Z,2676.00
2018-11-27T12:57:56.390Z,2648.00
2018-11-27T12:58:56.375Z,2620.00
2018-11-27T12:59:56.644Z,2584.00
2018-11-27T13:00:56.416Z,2560.00
2018-11-27T13:01:56.391Z,2540.00
2018-11-27T13:02:56.536Z,2516.00
2018-11-27T13:03:56.575Z,2480.00
2018-11-27T13:04:56.390Z,2480.00
2018-11-27T13:05:56.384Z,2488.00
2018-11-27T13:06:56.405Z,2480.00
2018-11-27T13:07:56.437Z,2452.00
2018-11-27T13:08:56.397Z,2408.00
2018-11-27T13:09:56.623Z,2364.00
2018-11-27T13:10:56.420Z,2328.00
2018-11-27T13:13:08.506Z,2276.00
2018-11-27T13:14:08.393Z,2252.00
2018-11-27T13:15:09.689Z,2240.00
2018-11-27T13:16:08.400Z,2208.00
2018-11-27T13:17:08.471Z,2156.00
2018-11-27T13:18:08.407Z,2116.00
2018-11-27T13:19:08.358Z,2096.00
2018-11-27T13:20:08.397Z,2076.00
2018-11-27T13:21:08.778Z,2052.00
2018-11-27T13:22:08.433Z,2020.00
2018-11-27T13:23:08.288Z,2004.00
2018-11-27T13:24:08.413Z,1980.00
2018-11-27T13:25:08.419Z,1952.00
2018-11-27T13:26:08.311Z,1928.00
2018-11-27T13:28:22.458Z,1928.00
2018-11-27T13:29:22.415Z,1932.00
2018-11-27T13:30:21.878Z,1924.00
2018-11-27T13:31:21.957Z,1908.00
2018-11-27T13:32:22.409Z,1892.00
2018-11-27T13:33:22.082Z,1872.00
2018-11-27T13:34:21.635Z,1844.00
2018-11-27T13:35:21.985Z,1800.00
2018-11-27T13:36:21.796Z,1764.00
2018-11-27T13:37:21.601Z,1736.00
2018-11-27T13:38:22.220Z,1716.00
2018-11-27T13:39:21.869Z,1696.00
2018-11-27T13:40:21.581Z,1668.00
2018-11-27T13:41:21.553Z,1628.00
2018-11-27T13:43:33.425Z,1512.00
2018-11-27T13:44:32.701Z,1484.00
2018-11-27T13:45:32.912Z,1480.00
2018-11-27T13:46:32.823Z,1492.00
2018-11-27T13:47:32.665Z,1496.00